sensor_id;sensor_type;location;lat;lon;timestamp;P1;durP1;ratioP1;P2;durP2;ratioP2
13415;SDS011;6779;50.150;8.680;2023-01-15T00:00:45;2.17;;;1.97;;
13415;SDS011;6779;50.150;8.680;2023-01-15T00:03:11;2.80;;;2.50;;
13415;SDS011;6779;50.150;8.680;2023-01-15T00:05:36;2.67;;;2.10;;
13415;SDS011;6779;50.150;8.680;2023-01-15T00:08:02;1.80;;;1.70;;
13415;SDS011;6779;50.150;8.680;2023-01-15T00:10:28;2.67;;;2.30;;
13415;SDS011;6779;50.150;8.680;2023-01-15T00:12:53;2.87;;;2.13;;
13415;SDS011;6779;50.150;8.680;2023-01-15T00:15:19;5.00;;;2.30;;
13415;SDS011;6779;50.150;8.680;2023-01-15T00:17:44;2.23;;;2.03;;
13415;SDS011;6779;50.150;8.680;2023-01-15T00:20:10;3.53;;;2.40;;
13415;SDS011;6779;50.150;8.680;2023-01-15T00:22:36;2.00;;;1.80;;
13415;SDS011;6779;50.150;8.680;2023-01-15T00:25:01;2.73;;;2.07;;
13415;SDS011;6779;50.150;8.680;2023-01-15T00:27:46;2.17;;;1.83;;
13415;SDS011;6779;50.150;8.680;2023-01-15T00:30:13;3.10;;;2.20;;
13415;SDS011;6779;50.150;8.680;2023-01-15T00:32:40;2.63;;;2.10;;
13415;SDS011;6779;50.150;8.680;2023-01-15T00:35:06;2.20;;;2.00;;
13415;SDS011;6779;50.150;8.680;2023-01-15T00:37:35;2.77;;;2.07;;
13415;SDS011;6779;50.150;8.680;2023-01-15T00:40:01;2.00;;;1.80;;
13415;SDS011;6779;50.150;8.680;2023-01-15T00:42:26;4.33;;;1.90;;
13415;SDS011;6779;50.150;8.680;2023-01-15T00:44:52;1.97;;;1.80;;
13415;SDS011;6779;50.150;8.680;2023-01-15T00:47:17;3.97;;;2.00;;
13415;SDS011;6779;50.150;8.680;2023-01-15T00:49:43;2.37;;;1.80;;
13415;SDS011;6779;50.150;8.680;2023-01-15T00:52:10;1.40;;;1.30;;
13415;SDS011;6779;50.150;8.680;2023-01-15T00:54:35;2.40;;;1.83;;
13415;SDS011;6779;50.150;8.680;2023-01-15T00:57:01;2.53;;;1.57;;
13415;SDS011;6779;50.150;8.680;2023-01-15T00:59:27;1.73;;;1.50;;
13415;SDS011;6779;50.150;8.680;2023-01-15T01:01:52;1.90;;;1.80;;
13415;SDS011;6779;50.150;8.680;2023-01-15T01:04:18;2.73;;;1.90;;
13415;SDS011;6779;50.150;8.680;2023-01-15T01:06:43;2.07;;;1.30;;
13415;SDS011;6779;50.150;8.680;2023-01-15T01:09:11;1.40;;;1.30;;
13415;SDS011;6779;50.150;8.680;2023-01-15T01:11:37;1.50;;;1.33;;
13415;SDS011;6779;50.150;8.680;2023-01-15T01:14:03;1.77;;;1.20;;
13415;SDS011;6779;50.150;8.680;2023-01-15T01:16:33;2.70;;;1.10;;
13415;SDS011;6779;50.150;8.680;2023-01-15T01:19:03;1.60;;;1.00;;
13415;SDS011;6779;50.150;8.680;2023-01-15T01:21:34;1.57;;;1.27;;
13415;SDS011;6779;50.150;8.680;2023-01-15T01:24:01;1.33;;;1.00;;
13415;SDS011;6779;50.150;8.680;2023-01-15T01:26:28;1.57;;;1.23;;
13415;SDS011;6779;50.150;8.680;2023-01-15T01:28:53;0.80;;;0.80;;
13415;SDS011;6779;50.150;8.680;2023-01-15T01:31:19;0.83;;;0.83;;
13415;SDS011;6779;50.150;8.680;2023-01-15T01:33:49;1.27;;;1.17;;
13415;SDS011;6779;50.150;8.680;2023-01-15T01:36:16;0.80;;;0.80;;
13415;SDS011;6779;50.150;8.680;2023-01-15T01:38:42;0.80;;;0.80;;
13415;SDS011;6779;50.150;8.680;2023-01-15T01:41:08;0.50;;;0.50;;
13415;SDS011;6779;50.150;8.680;2023-01-15T01:43:49;1.63;;;1.03;;
13415;SDS011;6779;50.150;8.680;2023-01-15T01:46:20;0.70;;;0.70;;
13415;SDS011;6779;50.150;8.680;2023-01-15T01:48:47;0.93;;;0.93;;
13415;SDS011;6779;50.150;8.680;2023-01-15T01:51:20;1.83;;;0.97;;
13415;SDS011;6779;50.150;8.680;2023-01-15T01:53:48;0.83;;;0.83;;
13415;SDS011;6779;50.150;8.680;2023-01-15T01:56:14;1.00;;;0.90;;
13415;SDS011;6779;50.150;8.680;2023-01-15T01:58:41;0.70;;;0.70;;
13415;SDS011;6779;50.150;8.680;2023-01-15T02:01:10;1.33;;;0.70;;
13415;SDS011;6779;50.150;8.680;2023-01-15T02:03:36;2.57;;;1.10;;
13415;SDS011;6779;50.150;8.680;2023-01-15T02:06:04;1.00;;;0.87;;
13415;SDS011;6779;50.150;8.680;2023-01-15T02:08:32;3.07;;;0.97;;
13415;SDS011;6779;50.150;8.680;2023-01-15T02:10:59;2.00;;;0.90;;
13415;SDS011;6779;50.150;8.680;2023-01-15T02:18:53;0.70;;;0.70;;
13415;SDS011;6779;50.150;8.680;2023-01-15T02:24:27;1.00;;;0.90;;
13415;SDS011;6779;50.150;8.680;2023-01-15T02:27:02;7.30;;;1.00;;
13415;SDS011;6779;50.150;8.680;2023-01-15T02:29:48;1.07;;;0.73;;
13415;SDS011;6779;50.150;8.680;2023-01-15T02:32:33;0.90;;;0.50;;
13415;SDS011;6779;50.150;8.680;2023-01-15T02:35:16;0.50;;;0.50;;
13415;SDS011;6779;50.150;8.680;2023-01-15T02:38:10;0.60;;;0.60;;
13415;SDS011;6779;50.150;8.680;2023-01-15T02:40:40;0.60;;;0.60;;
13415;SDS011;6779;50.150;8.680;2023-01-15T02:43:07;0.50;;;0.50;;
13415;SDS011;6779;50.150;8.680;2023-01-15T02:45:36;0.50;;;0.50;;
13415;SDS011;6779;50.150;8.680;2023-01-15T02:48:12;0.57;;;0.50;;
13415;SDS011;6779;50.150;8.680;2023-01-15T02:50:40;0.70;;;0.70;;
13415;SDS011;6779;50.150;8.680;2023-01-15T02:53:11;0.40;;;0.40;;
13415;SDS011;6779;50.150;8.680;2023-01-15T02:55:43;0.47;;;0.47;;
13415;SDS011;6779;50.150;8.680;2023-01-15T02:58:12;0.40;;;0.40;;
13415;SDS011;6779;50.150;8.680;2023-01-15T03:00:42;0.60;;;0.60;;
13415;SDS011;6779;50.150;8.680;2023-01-15T03:03:20;0.50;;;0.50;;
13415;SDS011;6779;50.150;8.680;2023-01-15T03:05:59;1.50;;;0.70;;
13415;SDS011;6779;50.150;8.680;2023-01-15T03:08:31;0.50;;;0.50;;
13415;SDS011;6779;50.150;8.680;2023-01-15T03:11:02;0.40;;;0.40;;
13415;SDS011;6779;50.150;8.680;2023-01-15T03:13:44;0.40;;;0.40;;
13415;SDS011;6779;50.150;8.680;2023-01-15T03:16:33;0.40;;;0.40;;
13415;SDS011;6779;50.150;8.680;2023-01-15T03:21:45;0.50;;;0.50;;
13415;SDS011;6779;50.150;8.680;2023-01-15T03:24:20;0.50;;;0.50;;
13415;SDS011;6779;50.150;8.680;2023-01-15T03:26:53;0.50;;;0.50;;
13415;SDS011;6779;50.150;8.680;2023-01-15T03:29:19;0.50;;;0.50;;
13415;SDS011;6779;50.150;8.680;2023-01-15T03:31:46;0.83;;;0.50;;
13415;SDS011;6779;50.150;8.680;2023-01-15T03:34:13;2.20;;;0.50;;
13415;SDS011;6779;50.150;8.680;2023-01-15T03:36:39;0.50;;;0.50;;
13415;SDS011;6779;50.150;8.680;2023-01-15T03:39:05;0.50;;;0.50;;
13415;SDS011;6779;50.150;8.680;2023-01-15T03:41:45;0.30;;;0.30;;
13415;SDS011;6779;50.150;8.680;2023-01-15T03:44:26;1.20;;;0.53;;
13415;SDS011;6779;50.150;8.680;2023-01-15T03:47:22;0.70;;;0.67;;
13415;SDS011;6779;50.150;8.680;2023-01-15T03:49:58;0.50;;;0.50;;
13415;SDS011;6779;50.150;8.680;2023-01-15T03:52:39;0.50;;;0.50;;
13415;SDS011;6779;50.150;8.680;2023-01-15T03:55:20;0.70;;;0.70;;
13415;SDS011;6779;50.150;8.680;2023-01-15T04:00:25;0.67;;;0.67;;
13415;SDS011;6779;50.150;8.680;2023-01-15T04:03:00;0.63;;;0.57;;
13415;SDS011;6779;50.150;8.680;2023-01-15T04:05:27;2.10;;;0.77;;
13415;SDS011;6779;50.150;8.680;2023-01-15T04:07:54;0.60;;;0.60;;
13415;SDS011;6779;50.150;8.680;2023-01-15T04:10:21;0.50;;;0.50;;
13415;SDS011;6779;50.150;8.680;2023-01-15T04:12:47;0.43;;;0.43;;
13415;SDS011;6779;50.150;8.680;2023-01-15T04:15:13;0.60;;;0.60;;
13415;SDS011;6779;50.150;8.680;2023-01-15T04:17:39;0.50;;;0.50;;
13415;SDS011;6779;50.150;8.680;2023-01-15T04:20:04;0.60;;;0.60;;
13415;SDS011;6779;50.150;8.680;2023-01-15T04:22:31;1.13;;;1.03;;
13415;SDS011;6779;50.150;8.680;2023-01-15T04:24:57;0.40;;;0.40;;
13415;SDS011;6779;50.150;8.680;2023-01-15T04:27:22;3.23;;;0.40;;
13415;SDS011;6779;50.150;8.680;2023-01-15T04:29:48;0.50;;;0.50;;
13415;SDS011;6779;50.150;8.680;2023-01-15T04:32:13;0.50;;;0.50;;
13415;SDS011;6779;50.150;8.680;2023-01-15T04:34:39;0.50;;;0.50;;
13415;SDS011;6779;50.150;8.680;2023-01-15T04:37:05;0.73;;;0.70;;
13415;SDS011;6779;50.150;8.680;2023-01-15T04:39:31;0.63;;;0.63;;
13415;SDS011;6779;50.150;8.680;2023-01-15T04:41:56;0.50;;;0.50;;
13415;SDS011;6779;50.150;8.680;2023-01-15T04:44:40;0.50;;;0.50;;
13415;SDS011;6779;50.150;8.680;2023-01-15T04:47:06;1.07;;;0.40;;
13415;SDS011;6779;50.150;8.680;2023-01-15T04:49:32;0.50;;;0.50;;
13415;SDS011;6779;50.150;8.680;2023-01-15T04:51:58;0.50;;;0.50;;
13415;SDS011;6779;50.150;8.680;2023-01-15T04:54:24;0.57;;;0.57;;
13415;SDS011;6779;50.150;8.680;2023-01-15T04:56:50;0.50;;;0.50;;
13415;SDS011;6779;50.150;8.680;2023-01-15T04:59:18;0.60;;;0.60;;
13415;SDS011;6779;50.150;8.680;2023-01-15T05:01:49;0.60;;;0.60;;
13415;SDS011;6779;50.150;8.680;2023-01-15T05:04:14;0.40;;;0.40;;
13415;SDS011;6779;50.150;8.680;2023-01-15T05:06:40;0.50;;;0.50;;
13415;SDS011;6779;50.150;8.680;2023-01-15T05:09:06;0.60;;;0.50;;
13415;SDS011;6779;50.150;8.680;2023-01-15T05:11:33;0.60;;;0.60;;
13415;SDS011;6779;50.150;8.680;2023-01-15T05:14:02;0.77;;;0.70;;
13415;SDS011;6779;50.150;8.680;2023-01-15T05:16:28;1.27;;;0.53;;
13415;SDS011;6779;50.150;8.680;2023-01-15T05:18:56;0.50;;;0.50;;
13415;SDS011;6779;50.150;8.680;2023-01-15T05:21:24;0.60;;;0.60;;
13415;SDS011;6779;50.150;8.680;2023-01-15T05:23:53;0.63;;;0.60;;
13415;SDS011;6779;50.150;8.680;2023-01-15T05:26:20;0.50;;;0.50;;
13415;SDS011;6779;50.150;8.680;2023-01-15T05:28:46;0.83;;;0.80;;
13415;SDS011;6779;50.150;8.680;2023-01-15T05:31:12;0.60;;;0.60;;
13415;SDS011;6779;50.150;8.680;2023-01-15T05:33:40;2.10;;;0.67;;
13415;SDS011;6779;50.150;8.680;2023-01-15T05:36:07;0.53;;;0.53;;
13415;SDS011;6779;50.150;8.680;2023-01-15T05:38:35;0.60;;;0.60;;
13415;SDS011;6779;50.150;8.680;2023-01-15T05:41:04;0.50;;;0.50;;
13415;SDS011;6779;50.150;8.680;2023-01-15T05:43:51;0.60;;;0.60;;
13415;SDS011;6779;50.150;8.680;2023-01-15T05:46:17;0.60;;;0.60;;
13415;SDS011;6779;50.150;8.680;2023-01-15T05:48:42;0.50;;;0.50;;
13415;SDS011;6779;50.150;8.680;2023-01-15T05:51:08;0.60;;;0.50;;
13415;SDS011;6779;50.150;8.680;2023-01-15T05:53:33;1.00;;;0.83;;
13415;SDS011;6779;50.150;8.680;2023-01-15T05:56:02;1.07;;;0.57;;
13415;SDS011;6779;50.150;8.680;2023-01-15T05:58:29;0.80;;;0.70;;
13415;SDS011;6779;50.150;8.680;2023-01-15T06:00:55;0.60;;;0.60;;
13415;SDS011;6779;50.150;8.680;2023-01-15T06:03:21;1.07;;;0.50;;
13415;SDS011;6779;50.150;8.680;2023-01-15T06:05:51;0.77;;;0.60;;
13415;SDS011;6779;50.150;8.680;2023-01-15T06:08:20;1.10;;;0.70;;
13415;SDS011;6779;50.150;8.680;2023-01-15T06:10:47;0.50;;;0.50;;
13415;SDS011;6779;50.150;8.680;2023-01-15T06:13:13;0.70;;;0.70;;
13415;SDS011;6779;50.150;8.680;2023-01-15T06:15:39;2.13;;;0.73;;
13415;SDS011;6779;50.150;8.680;2023-01-15T06:18:05;0.87;;;0.60;;
13415;SDS011;6779;50.150;8.680;2023-01-15T06:20:31;0.80;;;0.80;;
13415;SDS011;6779;50.150;8.680;2023-01-15T06:22:59;0.70;;;0.70;;
13415;SDS011;6779;50.150;8.680;2023-01-15T06:25:25;1.10;;;1.00;;
13415;SDS011;6779;50.150;8.680;2023-01-15T06:27:50;0.60;;;0.60;;
13415;SDS011;6779;50.150;8.680;2023-01-15T06:30:16;1.03;;;0.73;;
13415;SDS011;6779;50.150;8.680;2023-01-15T06:32:42;1.60;;;0.87;;
13415;SDS011;6779;50.150;8.680;2023-01-15T06:35:07;0.60;;;0.60;;
13415;SDS011;6779;50.150;8.680;2023-01-15T06:37:33;0.57;;;0.50;;
13415;SDS011;6779;50.150;8.680;2023-01-15T06:39:59;0.43;;;0.43;;
13415;SDS011;6779;50.150;8.680;2023-01-15T06:42:24;0.70;;;0.70;;
13415;SDS011;6779;50.150;8.680;2023-01-15T06:45:09;0.60;;;0.60;;
13415;SDS011;6779;50.150;8.680;2023-01-15T06:47:54;0.47;;;0.47;;
13415;SDS011;6779;50.150;8.680;2023-01-15T06:50:20;0.70;;;0.70;;
13415;SDS011;6779;50.150;8.680;2023-01-15T06:52:46;1.63;;;0.73;;
13415;SDS011;6779;50.150;8.680;2023-01-15T06:55:11;0.77;;;0.60;;
13415;SDS011;6779;50.150;8.680;2023-01-15T06:57:37;1.07;;;0.60;;
13415;SDS011;6779;50.150;8.680;2023-01-15T07:00:04;0.97;;;0.60;;
13415;SDS011;6779;50.150;8.680;2023-01-15T07:02:30;0.50;;;0.50;;
13415;SDS011;6779;50.150;8.680;2023-01-15T07:04:56;0.90;;;0.67;;
13415;SDS011;6779;50.150;8.680;2023-01-15T07:07:21;2.57;;;0.60;;
13415;SDS011;6779;50.150;8.680;2023-01-15T07:09:47;0.60;;;0.60;;
13415;SDS011;6779;50.150;8.680;2023-01-15T07:12:13;0.40;;;0.40;;
13415;SDS011;6779;50.150;8.680;2023-01-15T07:14:39;1.50;;;0.50;;
13415;SDS011;6779;50.150;8.680;2023-01-15T07:17:04;0.67;;;0.60;;
13415;SDS011;6779;50.150;8.680;2023-01-15T07:19:30;0.50;;;0.50;;
13415;SDS011;6779;50.150;8.680;2023-01-15T07:21:56;4.37;;;0.70;;
13415;SDS011;6779;50.150;8.680;2023-01-15T07:24:21;1.23;;;0.50;;
13415;SDS011;6779;50.150;8.680;2023-01-15T07:26:47;0.57;;;0.57;;
13415;SDS011;6779;50.150;8.680;2023-01-15T07:29:13;0.50;;;0.50;;
13415;SDS011;6779;50.150;8.680;2023-01-15T07:31:38;2.30;;;0.60;;
13415;SDS011;6779;50.150;8.680;2023-01-15T07:34:05;1.53;;;0.60;;
13415;SDS011;6779;50.150;8.680;2023-01-15T07:36:30;1.13;;;0.60;;
13415;SDS011;6779;50.150;8.680;2023-01-15T07:38:56;0.73;;;0.60;;
13415;SDS011;6779;50.150;8.680;2023-01-15T07:41:22;1.27;;;0.60;;
13415;SDS011;6779;50.150;8.680;2023-01-15T07:44:08;2.47;;;0.60;;
13415;SDS011;6779;50.150;8.680;2023-01-15T07:46:53;1.23;;;0.50;;
13415;SDS011;6779;50.150;8.680;2023-01-15T07:50:00;1.07;;;0.90;;
13415;SDS011;6779;50.150;8.680;2023-01-15T07:52:26;0.77;;;0.70;;
13415;SDS011;6779;50.150;8.680;2023-01-15T07:54:52;3.03;;;0.77;;
13415;SDS011;6779;50.150;8.680;2023-01-15T07:57:18;2.40;;;0.73;;
13415;SDS011;6779;50.150;8.680;2023-01-15T07:59:45;0.80;;;0.80;;
13415;SDS011;6779;50.150;8.680;2023-01-15T08:02:11;1.47;;;0.87;;
13415;SDS011;6779;50.150;8.680;2023-01-15T08:04:38;0.90;;;0.90;;
13415;SDS011;6779;50.150;8.680;2023-01-15T08:07:04;1.63;;;0.90;;
13415;SDS011;6779;50.150;8.680;2023-01-15T08:09:29;2.23;;;0.70;;
13415;SDS011;6779;50.150;8.680;2023-01-15T08:11:58;0.73;;;0.73;;
13415;SDS011;6779;50.150;8.680;2023-01-15T08:14:44;0.80;;;0.70;;
13415;SDS011;6779;50.150;8.680;2023-01-15T08:17:29;0.60;;;0.60;;
13415;SDS011;6779;50.150;8.680;2023-01-15T08:19:57;0.60;;;0.60;;
13415;SDS011;6779;50.150;8.680;2023-01-15T08:22:22;0.80;;;0.70;;
13415;SDS011;6779;50.150;8.680;2023-01-15T08:24:48;0.97;;;0.80;;
13415;SDS011;6779;50.150;8.680;2023-01-15T08:27:14;1.17;;;0.70;;
13415;SDS011;6779;50.150;8.680;2023-01-15T08:29:39;1.00;;;1.00;;
13415;SDS011;6779;50.150;8.680;2023-01-15T08:32:05;0.70;;;0.70;;
13415;SDS011;6779;50.150;8.680;2023-01-15T08:34:30;0.60;;;0.60;;
13415;SDS011;6779;50.150;8.680;2023-01-15T08:36:56;0.70;;;0.70;;
13415;SDS011;6779;50.150;8.680;2023-01-15T08:39:24;2.60;;;0.60;;
13415;SDS011;6779;50.150;8.680;2023-01-15T08:41:50;0.70;;;0.70;;
13415;SDS011;6779;50.150;8.680;2023-01-15T08:44:16;0.97;;;0.60;;
13415;SDS011;6779;50.150;8.680;2023-01-15T08:46:41;0.50;;;0.50;;
13415;SDS011;6779;50.150;8.680;2023-01-15T08:49:10;1.43;;;0.50;;
13415;SDS011;6779;50.150;8.680;2023-01-15T08:51:36;0.60;;;0.60;;
13415;SDS011;6779;50.150;8.680;2023-01-15T08:54:02;0.60;;;0.60;;
13415;SDS011;6779;50.150;8.680;2023-01-15T08:56:27;0.53;;;0.50;;
13415;SDS011;6779;50.150;8.680;2023-01-15T08:58:53;0.70;;;0.70;;
13415;SDS011;6779;50.150;8.680;2023-01-15T09:01:18;0.70;;;0.60;;
13415;SDS011;6779;50.150;8.680;2023-01-15T09:03:44;0.63;;;0.63;;
13415;SDS011;6779;50.150;8.680;2023-01-15T09:06:09;0.60;;;0.60;;
13415;SDS011;6779;50.150;8.680;2023-01-15T09:08:37;0.63;;;0.63;;
13415;SDS011;6779;50.150;8.680;2023-01-15T09:11:03;0.90;;;0.70;;
13415;SDS011;6779;50.150;8.680;2023-01-15T09:13:31;0.93;;;0.73;;
13415;SDS011;6779;50.150;8.680;2023-01-15T09:16:00;0.83;;;0.57;;
13415;SDS011;6779;50.150;8.680;2023-01-15T09:18:27;0.50;;;0.50;;
13415;SDS011;6779;50.150;8.680;2023-01-15T09:20:53;0.50;;;0.50;;
13415;SDS011;6779;50.150;8.680;2023-01-15T09:23:19;0.63;;;0.63;;
13415;SDS011;6779;50.150;8.680;2023-01-15T09:25:54;1.03;;;0.63;;
13415;SDS011;6779;50.150;8.680;2023-01-15T09:28:21;1.03;;;0.80;;
13415;SDS011;6779;50.150;8.680;2023-01-15T09:30:47;0.70;;;0.70;;
13415;SDS011;6779;50.150;8.680;2023-01-15T09:33:13;0.93;;;0.80;;
13415;SDS011;6779;50.150;8.680;2023-01-15T09:35:39;0.50;;;0.50;;
13415;SDS011;6779;50.150;8.680;2023-01-15T09:38:06;0.80;;;0.80;;
13415;SDS011;6779;50.150;8.680;2023-01-15T09:40:48;0.60;;;0.60;;
13415;SDS011;6779;50.150;8.680;2023-01-15T09:43:24;0.70;;;0.70;;
13415;SDS011;6779;50.150;8.680;2023-01-15T09:46:19;1.23;;;0.73;;
13415;SDS011;6779;50.150;8.680;2023-01-15T09:51:39;0.80;;;0.73;;
13415;SDS011;6779;50.150;8.680;2023-01-15T09:57:18;0.60;;;0.60;;
13415;SDS011;6779;50.150;8.680;2023-01-15T09:59:47;2.10;;;0.80;;
13415;SDS011;6779;50.150;8.680;2023-01-15T10:05:40;0.80;;;0.60;;
13415;SDS011;6779;50.150;8.680;2023-01-15T10:08:08;2.43;;;0.60;;
13415;SDS011;6779;50.150;8.680;2023-01-15T10:10:43;0.63;;;0.63;;
13415;SDS011;6779;50.150;8.680;2023-01-15T10:16:18;0.70;;;0.70;;
13415;SDS011;6779;50.150;8.680;2023-01-15T10:18:47;0.80;;;0.80;;
13415;SDS011;6779;50.150;8.680;2023-01-15T10:27:17;2.30;;;0.80;;
13415;SDS011;6779;50.150;8.680;2023-01-15T10:29:53;0.70;;;0.70;;
13415;SDS011;6779;50.150;8.680;2023-01-15T10:32:34;0.60;;;0.60;;
13415;SDS011;6779;50.150;8.680;2023-01-15T10:35:15;1.00;;;0.90;;
13415;SDS011;6779;50.150;8.680;2023-01-15T10:37:53;1.17;;;0.93;;
13415;SDS011;6779;50.150;8.680;2023-01-15T10:40:31;1.50;;;0.70;;
13415;SDS011;6779;50.150;8.680;2023-01-15T10:43:23;0.60;;;0.60;;
13415;SDS011;6779;50.150;8.680;2023-01-15T10:46:10;1.57;;;0.70;;
13415;SDS011;6779;50.150;8.680;2023-01-15T10:48:57;0.50;;;0.50;;
13415;SDS011;6779;50.150;8.680;2023-01-15T10:51:27;0.83;;;0.80;;
13415;SDS011;6779;50.150;8.680;2023-01-15T10:59:21;0.60;;;0.60;;
13415;SDS011;6779;50.150;8.680;2023-01-15T11:01:55;0.60;;;0.60;;
13415;SDS011;6779;50.150;8.680;2023-01-15T11:04:23;0.57;;;0.57;;
13415;SDS011;6779;50.150;8.680;2023-01-15T11:06:51;3.67;;;0.70;;
13415;SDS011;6779;50.150;8.680;2023-01-15T11:09:18;0.67;;;0.60;;
13415;SDS011;6779;50.150;8.680;2023-01-15T11:11:47;0.70;;;0.70;;
13415;SDS011;6779;50.150;8.680;2023-01-15T11:14:31;0.80;;;0.80;;
13415;SDS011;6779;50.150;8.680;2023-01-15T11:17:15;0.53;;;0.53;;
13415;SDS011;6779;50.150;8.680;2023-01-15T11:19:59;2.50;;;0.87;;
13415;SDS011;6779;50.150;8.680;2023-01-15T11:22:25;1.20;;;0.93;;
13415;SDS011;6779;50.150;8.680;2023-01-15T11:24:54;2.17;;;0.90;;
13415;SDS011;6779;50.150;8.680;2023-01-15T11:27:23;0.80;;;0.80;;
13415;SDS011;6779;50.150;8.680;2023-01-15T11:29:52;2.00;;;0.80;;
13415;SDS011;6779;50.150;8.680;2023-01-15T11:32:23;1.33;;;0.70;;
13415;SDS011;6779;50.150;8.680;2023-01-15T11:34:57;1.13;;;0.80;;
13415;SDS011;6779;50.150;8.680;2023-01-15T11:37:24;1.97;;;1.10;;
13415;SDS011;6779;50.150;8.680;2023-01-15T11:39:55;2.10;;;0.80;;
13415;SDS011;6779;50.150;8.680;2023-01-15T11:42:30;1.23;;;0.67;;
13415;SDS011;6779;50.150;8.680;2023-01-15T11:45:16;0.83;;;0.80;;
13415;SDS011;6779;50.150;8.680;2023-01-15T11:48:08;0.60;;;0.60;;
13415;SDS011;6779;50.150;8.680;2023-01-15T11:51:05;1.00;;;0.60;;
13415;SDS011;6779;50.150;8.680;2023-01-15T11:53:33;1.17;;;0.70;;
13415;SDS011;6779;50.150;8.680;2023-01-15T11:56:05;1.97;;;0.80;;
13415;SDS011;6779;50.150;8.680;2023-01-15T11:58:38;4.63;;;0.93;;
13415;SDS011;6779;50.150;8.680;2023-01-15T12:01:13;0.63;;;0.60;;
13415;SDS011;6779;50.150;8.680;2023-01-15T12:03:46;0.67;;;0.60;;
13415;SDS011;6779;50.150;8.680;2023-01-15T12:06:12;0.87;;;0.80;;
13415;SDS011;6779;50.150;8.680;2023-01-15T12:11:25;1.80;;;0.80;;
13415;SDS011;6779;50.150;8.680;2023-01-15T12:16:36;1.80;;;0.97;;
13415;SDS011;6779;50.150;8.680;2023-01-15T12:24:26;0.80;;;0.70;;
13415;SDS011;6779;50.150;8.680;2023-01-15T12:29:56;2.07;;;0.67;;
13415;SDS011;6779;50.150;8.680;2023-01-15T12:32:35;0.87;;;0.83;;
13415;SDS011;6779;50.150;8.680;2023-01-15T12:35:06;0.97;;;0.70;;
13415;SDS011;6779;50.150;8.680;2023-01-15T12:37:49;2.20;;;0.60;;
13415;SDS011;6779;50.150;8.680;2023-01-15T12:40:42;2.97;;;0.60;;
13415;SDS011;6779;50.150;8.680;2023-01-15T12:43:18;2.07;;;1.00;;
13415;SDS011;6779;50.150;8.680;2023-01-15T12:46:08;2.67;;;1.00;;
13415;SDS011;6779;50.150;8.680;2023-01-15T12:48:44;3.60;;;1.03;;
13415;SDS011;6779;50.150;8.680;2023-01-15T12:51:19;1.73;;;0.80;;
13415;SDS011;6779;50.150;8.680;2023-01-15T12:53:54;2.00;;;1.13;;
13415;SDS011;6779;50.150;8.680;2023-01-15T12:59:15;2.00;;;0.73;;
13415;SDS011;6779;50.150;8.680;2023-01-15T13:04:41;4.83;;;0.80;;
13415;SDS011;6779;50.150;8.680;2023-01-15T13:10:06;2.97;;;1.00;;
13415;SDS011;6779;50.150;8.680;2023-01-15T13:12:34;1.00;;;0.67;;
13415;SDS011;6779;50.150;8.680;2023-01-15T13:15:00;1.60;;;0.70;;
13415;SDS011;6779;50.150;8.680;2023-01-15T13:17:30;1.50;;;0.70;;
13415;SDS011;6779;50.150;8.680;2023-01-15T13:25:45;1.27;;;0.87;;
13415;SDS011;6779;50.150;8.680;2023-01-15T13:28:35;2.20;;;0.77;;
13415;SDS011;6779;50.150;8.680;2023-01-15T13:31:36;0.83;;;0.60;;
13415;SDS011;6779;50.150;8.680;2023-01-15T13:34:07;0.70;;;0.70;;
13415;SDS011;6779;50.150;8.680;2023-01-15T13:36:43;1.17;;;1.07;;
13415;SDS011;6779;50.150;8.680;2023-01-15T13:39:16;2.23;;;0.73;;
13415;SDS011;6779;50.150;8.680;2023-01-15T13:41:46;1.27;;;0.90;;
13415;SDS011;6779;50.150;8.680;2023-01-15T13:44:35;2.03;;;0.90;;
13415;SDS011;6779;50.150;8.680;2023-01-15T13:47:11;2.87;;;0.90;;
13415;SDS011;6779;50.150;8.680;2023-01-15T13:49:45;1.20;;;0.70;;
13415;SDS011;6779;50.150;8.680;2023-01-15T13:52:21;3.17;;;1.07;;
13415;SDS011;6779;50.150;8.680;2023-01-15T13:54:59;1.10;;;1.00;;
13415;SDS011;6779;50.150;8.680;2023-01-15T13:58:16;2.47;;;1.00;;
13415;SDS011;6779;50.150;8.680;2023-01-15T14:00:46;2.57;;;1.07;;
13415;SDS011;6779;50.150;8.680;2023-01-15T14:03:25;4.33;;;1.00;;
13415;SDS011;6779;50.150;8.680;2023-01-15T14:05:56;1.67;;;0.80;;
13415;SDS011;6779;50.150;8.680;2023-01-15T14:08:24;2.30;;;0.67;;
13415;SDS011;6779;50.150;8.680;2023-01-15T14:11:02;1.70;;;1.30;;
13415;SDS011;6779;50.150;8.680;2023-01-15T14:13:44;1.80;;;1.20;;
13415;SDS011;6779;50.150;8.680;2023-01-15T14:16:35;3.07;;;1.20;;
13415;SDS011;6779;50.150;8.680;2023-01-15T14:19:42;2.13;;;1.20;;
13415;SDS011;6779;50.150;8.680;2023-01-15T14:22:46;2.03;;;0.70;;
13415;SDS011;6779;50.150;8.680;2023-01-15T14:34:21;1.57;;;0.90;;
13415;SDS011;6779;50.150;8.680;2023-01-15T14:37:05;1.70;;;0.90;;
13415;SDS011;6779;50.150;8.680;2023-01-15T14:39:52;1.27;;;0.80;;
13415;SDS011;6779;50.150;8.680;2023-01-15T14:52:58;0.80;;;0.80;;
13415;SDS011;6779;50.150;8.680;2023-01-15T14:55:29;6.23;;;1.10;;
13415;SDS011;6779;50.150;8.680;2023-01-15T14:58:02;4.87;;;1.57;;
13415;SDS011;6779;50.150;8.680;2023-01-15T15:00:34;3.90;;;0.83;;
13415;SDS011;6779;50.150;8.680;2023-01-15T15:03:15;4.70;;;0.90;;
13415;SDS011;6779;50.150;8.680;2023-01-15T15:05:44;4.50;;;1.50;;
13415;SDS011;6779;50.150;8.680;2023-01-15T15:08:14;3.23;;;1.07;;
13415;SDS011;6779;50.150;8.680;2023-01-15T15:10:43;3.43;;;1.07;;
13415;SDS011;6779;50.150;8.680;2023-01-15T15:18:30;2.43;;;1.07;;
13415;SDS011;6779;50.150;8.680;2023-01-15T15:23:50;3.67;;;1.27;;
13415;SDS011;6779;50.150;8.680;2023-01-15T15:29:09;2.27;;;1.57;;
13415;SDS011;6779;50.150;8.680;2023-01-15T15:31:37;3.50;;;1.00;;
13415;SDS011;6779;50.150;8.680;2023-01-15T15:34:06;4.87;;;1.47;;
13415;SDS011;6779;50.150;8.680;2023-01-15T15:36:40;2.37;;;1.10;;
13415;SDS011;6779;50.150;8.680;2023-01-15T15:39:18;3.27;;;1.00;;
13415;SDS011;6779;50.150;8.680;2023-01-15T15:42:04;4.23;;;1.20;;
13415;SDS011;6779;50.150;8.680;2023-01-15T15:44:56;2.93;;;0.73;;
13415;SDS011;6779;50.150;8.680;2023-01-15T15:47:42;2.97;;;0.90;;
13415;SDS011;6779;50.150;8.680;2023-01-15T15:50:31;5.67;;;1.10;;
13415;SDS011;6779;50.150;8.680;2023-01-15T15:52:58;3.13;;;1.43;;
13415;SDS011;6779;50.150;8.680;2023-01-15T15:55:31;1.77;;;1.00;;
13415;SDS011;6779;50.150;8.680;2023-01-15T15:58:02;3.03;;;0.90;;
13415;SDS011;6779;50.150;8.680;2023-01-15T16:00:30;5.10;;;1.10;;
13415;SDS011;6779;50.150;8.680;2023-01-15T16:03:04;2.40;;;1.10;;
13415;SDS011;6779;50.150;8.680;2023-01-15T16:05:32;2.37;;;0.80;;
13415;SDS011;6779;50.150;8.680;2023-01-15T16:08:15;3.20;;;0.90;;
13415;SDS011;6779;50.150;8.680;2023-01-15T16:10:43;1.53;;;0.90;;
13415;SDS011;6779;50.150;8.680;2023-01-15T16:13:13;3.07;;;1.00;;
13415;SDS011;6779;50.150;8.680;2023-01-15T16:15:46;2.27;;;0.83;;
13415;SDS011;6779;50.150;8.680;2023-01-15T16:18:17;3.17;;;0.93;;
13415;SDS011;6779;50.150;8.680;2023-01-15T16:20:53;3.63;;;1.23;;
13415;SDS011;6779;50.150;8.680;2023-01-15T16:23:25;2.73;;;1.10;;
13415;SDS011;6779;50.150;8.680;2023-01-15T16:25:57;3.53;;;1.07;;
13415;SDS011;6779;50.150;8.680;2023-01-15T16:28:30;2.03;;;0.87;;
13415;SDS011;6779;50.150;8.680;2023-01-15T16:31:05;3.20;;;1.00;;
13415;SDS011;6779;50.150;8.680;2023-01-15T16:33:31;2.03;;;1.00;;
13415;SDS011;6779;50.150;8.680;2023-01-15T16:35:57;1.43;;;0.90;;
13415;SDS011;6779;50.150;8.680;2023-01-15T16:38:24;1.60;;;0.80;;
13415;SDS011;6779;50.150;8.680;2023-01-15T16:40:50;0.73;;;0.73;;
13415;SDS011;6779;50.150;8.680;2023-01-15T16:43:18;1.33;;;1.10;;
13415;SDS011;6779;50.150;8.680;2023-01-15T16:50:47;2.57;;;1.00;;
13415;SDS011;6779;50.150;8.680;2023-01-15T16:56:02;3.60;;;1.40;;
13415;SDS011;6779;50.150;8.680;2023-01-15T17:01:21;1.97;;;1.17;;
13415;SDS011;6779;50.150;8.680;2023-01-15T17:04:15;1.40;;;0.80;;
13415;SDS011;6779;50.150;8.680;2023-01-15T17:06:42;1.77;;;0.73;;
13415;SDS011;6779;50.150;8.680;2023-01-15T17:09:09;1.00;;;0.90;;
13415;SDS011;6779;50.150;8.680;2023-01-15T17:11:38;4.13;;;1.30;;